Portada
METAR-TAF:

METAR-TAF

Aeroports :

Sukhothai, Tailàndia

latitud: 17-14-16N, longitud: 099-49-05E, altitud: 55 m

Observació

L'informe es va fer fa 19 minuts, a les 01:00 UTC
Vent 4 kt del Sud/Sud-Est
Temperatura 28°C
Humitat 89%
Pressió 1007 hPa
Visibilitat 10 km o més
Núvols disperses a una alçada de 2200 ft

METAR: VTPO 200100Z 15004KT 9999 SCT022 28/26 Q1007 NOSIG

Hora: 08:19 (01:19 UTC)

Pronòstic

L'informe es va fer fa 2 hores i 19 minuts, a les 23:00 UTC
Pronòstic vàlid del 20 a les 00 UTC al 20 a les 24 UTC
Vent 5 kt del Sud/Sud-Oest
Visibilitat 10 km o més
Cel ennuvolat a una alçada de 3500 ft
Temporalment
l' 20 a les 08 UTC al 20 a les 15 UTC
Vent 15 kt amb direcció variable amb ràfegues de 25 kt
Visibilitat: 5000 m
Escasses núvols a una alçada de 2500 ft, Cumulonimbus.
Cel ennuvolat a una alçada de 3000 ft
tempesta, pluja

TAF: VTPO 192300Z 2000/2024 21005KT 9999 BKN035 TEMPO 2008/2015 VRB15G25KT 5000 TSRA FEW025CB BKN030

Observacions i pronòstics meteorològics de més de 4000 aeroports (METAR i TAF).

Les estacions disponibles són els punts grocs i vermells al mapa.

Posi el ratolí al punt desitjat per veure el nom de l'estació.

Feu clic per veure les observacions i els pronòstics meteorològics.

Per canviar el mapa: feu clic els botons verds amb una creu de color negre per apropar; al botó verd amb un guió per allunyar la imatge; o en les fletxes verdes per a mapes adjacents.


METAR-TAF: